• Join FlightAware (Why Join?)
  • Login
  • US Flag 
07:51PM EDT


 

Airport Tracker/Info


-or-


 

Live Flight TrackerFlight Track Log ✈ WAE5 ✈ 22-May-2013 ✈ KSLC - KPIH

Flight Track Log - Related Links

Times and Time Zones

All times are in EDT time to prevent confusion due to time zone crossing. See the WAE5 flight status page for this flight to view local times or setup timezone preferences in your user account.

Time Position Orientation Groundspeed Altitude Reporting Facility
EDT Latitude Longitude Course Direction KTS MPH feet Rate Location/Type
08:47AM 40.7625 -111.9631 288° West 106 122 4,800  Level Salt Lake Center
08:48AM 40.7739 -112.0103 288° West 159 183 5,800 660 Climbing Salt Lake Center
08:49AM 40.7825 -112.0144 340° North 157 181 6,000 780 Climbing Salt Lake Center
08:49AM 40.8075 -112.0500 313° West 159 183 6,600 780 Climbing Salt Lake Center
08:50AM 40.8147 -112.0531 342° North 156 180 6,800 960 Climbing Salt Lake Center
08:50AM 40.8414 -112.0694 335° Northwest 149 171 7,500 1,080 Climbing Salt Lake Center
08:51AM 40.8597 -112.0706 357° North 142 163 7,900 660 Climbing Salt Lake Center
08:51AM 40.8881 -112.0764 351° North 147 169 8,300 480 Climbing Salt Lake Center
08:52AM 40.9000 -112.0769 358° North 146 168 8,400 600 Climbing Salt Lake Center
08:53AM 40.9422 -112.0906 346° North 154 177 9,100 660 Climbing Salt Lake Center
08:54AM 40.9814 -112.0983 351° North 143 165 9,800 540 Climbing Salt Lake Center
08:55AM 41.0228 -112.1086 349° North 151 174 10,200 540 Climbing Salt Lake Center
08:56AM 41.0658 -112.1156 353° North 154 177 10,900 420 Climbing Salt Lake Center
08:57AM 41.1114 -112.1269 349° North 168 193 11,100  Climbing Salt Lake Center
08:58AM 41.1603 -112.1417 347° North 179 206 11,000 -60 Descending Salt Lake Center
08:59AM 41.2103 -112.1600 345° North 184 212 11,000  Level Salt Lake Center
09:00AM 41.2617 -112.1781 345° North 189 217 11,000  Level Salt Lake Center
09:01AM 41.3136 -112.1961 345° North 193 222 11,000  Level Salt Lake Center
09:02AM 41.3642 -112.2136 345° North 187 215 11,000  Level Salt Lake Center
09:03AM 41.4167 -112.2325 345° North 194 223 11,000  Level Salt Lake Center
09:04AM 41.4697 -112.2506 346° North 196 226 11,000  Level Salt Lake Center
09:05AM 41.5222 -112.2675 346° North 195 224 11,000  Level Salt Lake Center
09:06AM 41.5739 -112.2889 343° North 195 224 11,100  Climbing Salt Lake Center
09:07AM 41.6261 -112.3083 344° North 195 224 11,100 -60 Level Salt Lake Center
09:08AM 41.6819 -112.3236 348° North 204 235 11,000 -60 Descending Salt Lake Center
09:09AM 41.7364 -112.3361 350° North 201 231 11,000  Level Salt Lake Center
09:10AM 41.7897 -112.3553 345° North 199 229 11,000  Level Salt Lake Center
09:11AM 41.8436 -112.3719 347° North 199 229 11,000  Level Salt Lake Center
09:12AM 41.9094 -112.3875 350° North 199 229 11,000  Level Salt Lake Center
09:13AM 41.9631 -112.4033 348° North 199 229 11,000  Level Salt Lake Center
09:14AM 42.0181 -112.4186 348° North 200 230 11,000  Level Salt Lake Center
09:15AM 42.0717 -112.4364 346° North 200 230 11,000  Level Salt Lake Center
09:16AM 42.1233 -112.4525 347° North 196 226 11,000  Level Salt Lake Center
09:17AM 42.1744 -112.4678 348° North 192 221 11,100 60 Climbing Salt Lake Center
09:18AM 42.2233 -112.4814 348° North 187 215 11,200  Climbing Salt Lake Center
09:19AM 42.2703 -112.4936 349° North 179 206 11,100  Descending Salt Lake Center
09:20AM 42.3172 -112.5031 352° North 174 200 11,200  Climbing Salt Lake Center
09:21AM 42.3622 -112.5144 349° North 169 194 11,200 -60 Level Salt Lake Center
09:22AM 42.4078 -112.5239 351° North 167 192 11,100  Descending Salt Lake Center
09:23AM 42.4525 -112.5356 349° North 164 189 11,200  Climbing Salt Lake Center
09:24AM 42.4967 -112.5456 351° North 163 188 11,100  Descending Salt Lake Center
09:25AM 42.5508 -112.5592 350° North 164 189 11,200  Climbing Salt Lake Center
09:26AM 42.5958 -112.5689 351° North 163 188 11,200  Level Salt Lake Center
09:27AM 42.6403 -112.5803 349° North 163 188 11,200 -240 Level Salt Lake Center
09:28AM 42.6856 -112.5914 350° North 165 190 10,800 -480 Descending Salt Lake Center
09:29AM 42.7381 -112.6092 346° North 177 204 10,300 -540 Descending Salt Lake Center
09:30AM 42.7878 -112.6008 North 184 212 9,800 -600 Descending Salt Lake Center
09:31AM 42.8358 -112.5717 24° Northeast 191 220 9,100 -660 Descending Salt Lake Center
09:32AM 42.8817 -112.5322 32° Northeast 183 211 8,500 -720 Descending Salt Lake Center
09:33AM 42.9003 -112.5031 49° Northeast 169 194 7,700 -1,260 Descending Salt Lake Center
09:34AM 42.9350 -112.5272 333° Northwest 139 160 6,000 -1,320 Descending Salt Lake Center
09:35AM 42.9314 -112.5689 263° West 120 138 5,100 -900 Descending Salt Lake Center